Terminal Aerodrome Forecast
Issued by NWS Upton, NY

Home | Current Version | Previous Version | Text Only | Print | Product List | Glossary On
Versions: 1 2 3 4 5 6 7 8 9 10 11 12 13 14 15 16 17 18 19 20 21 22 23 24 25 26 27 28 29 30 31 32 33 34 35 36
649
FTUS41 KOKX 201732
TAFBDR
TAF
KBDR 201732Z 2018/2118 13006KT P6SM BKN020 BKN200
     FM202300 14005KT 4SM -RA BR OVC020
     FM210100 17004KT 1 1/2SM -RA BR OVC009
     FM210400 18003KT 1SM -RA BR OVC006
     FM210800 VRB03KT 1SM BR OVC005
     FM211400 26007KT 3SM BR BKN010=

USA.gov is the U.S. government's official web portal to all federal, state and local government web resources and services.